Vendor, Arkansas
Current Conditions -  °F | °C
As of 1:53 AM on Thursday 27 Nov 2014 (Local Time) from KHRO Reporting Station
Overcast Overcast  
Wind Chill: -6°   Ceiling: 2300
Heat Index:   Visibility: 10mi
Dew Point: -4°   Wind: 14mph
Humidity: 73%   Direction: 320°NW
Pressure: 30.35"   Gusts: 22mph
Location:  35.95°N, 93.08°W
Report Text: KHRO 270753Z AUTO 32012G19KT 10SM OVC023 00/M04 A3035 RMK AO2 SLP283 T00001044
Loading
Personal Weather Stations






























Interactive Weather Map New forecast layout! Learn more

10-Day Weather Forecast

Advertisements
Track Severe Weather on mobile